sensor_id;sensor_type;location;lat;lon;timestamp;P1;durP1;ratioP1;P2;durP2;ratioP2
22983;SDS011;11658;48.908;9.140;2022-10-16T05:02:37;3.83;;;1.60;;
22983;SDS011;11658;48.908;9.140;2022-10-16T05:05:03;1.97;;;1.67;;
22983;SDS011;11658;48.908;9.140;2022-10-16T05:07:29;2.30;;;1.40;;
22983;SDS011;11658;48.908;9.140;2022-10-16T05:09:54;3.10;;;1.37;;
22983;SDS011;11658;48.908;9.140;2022-10-16T05:12:20;2.63;;;1.40;;
22983;SDS011;11658;48.908;9.140;2022-10-16T05:14:45;2.17;;;1.57;;
22983;SDS011;11658;48.908;9.140;2022-10-16T05:17:11;1.60;;;1.50;;
22983;SDS011;11658;48.908;9.140;2022-10-16T05:19:36;2.53;;;1.60;;
22983;SDS011;11658;48.908;9.140;2022-10-16T05:22:02;4.07;;;1.43;;
22983;SDS011;11658;48.908;9.140;2022-10-16T05:24:27;1.50;;;1.40;;
22983;SDS011;11658;48.908;9.140;2022-10-16T05:26:53;2.10;;;1.50;;
22983;SDS011;11658;48.908;9.140;2022-10-16T05:29:19;2.73;;;1.80;;
22983;SDS011;11658;48.908;9.140;2022-10-16T05:31:45;3.00;;;1.50;;
22983;SDS011;11658;48.908;9.140;2022-10-16T05:34:10;2.93;;;1.60;;
22983;SDS011;11658;48.908;9.140;2022-10-16T05:36:36;1.80;;;1.47;;
22983;SDS011;11658;48.908;9.140;2022-10-16T05:39:02;4.27;;;1.73;;
22983;SDS011;11658;48.908;9.140;2022-10-16T05:41:28;2.50;;;1.50;;
22983;SDS011;11658;48.908;9.140;2022-10-16T05:43:53;2.73;;;1.57;;
22983;SDS011;11658;48.908;9.140;2022-10-16T05:46:19;2.37;;;1.60;;
22983;SDS011;11658;48.908;9.140;2022-10-16T05:48:45;2.07;;;1.50;;
22983;SDS011;11658;48.908;9.140;2022-10-16T05:51:12;3.37;;;1.70;;
22983;SDS011;11658;48.908;9.140;2022-10-16T05:53:39;1.37;;;1.27;;
22983;SDS011;11658;48.908;9.140;2022-10-16T05:56:06;1.90;;;1.20;;
22983;SDS011;11658;48.908;9.140;2022-10-16T05:58:35;2.10;;;1.80;;
22983;SDS011;11658;48.908;9.140;2022-10-16T06:01:05;2.70;;;1.73;;
22983;SDS011;11658;48.908;9.140;2022-10-16T06:03:32;2.00;;;1.77;;
22983;SDS011;11658;48.908;9.140;2022-10-16T06:05:58;2.53;;;1.50;;
22983;SDS011;11658;48.908;9.140;2022-10-16T06:08:24;2.10;;;1.30;;
22983;SDS011;11658;48.908;9.140;2022-10-16T06:11:00;4.10;;;1.80;;
22983;SDS011;11658;48.908;9.140;2022-10-16T06:13:27;2.07;;;1.73;;
22983;SDS011;11658;48.908;9.140;2022-10-16T06:15:52;4.27;;;1.90;;
22983;SDS011;11658;48.908;9.140;2022-10-16T06:18:18;2.57;;;1.60;;
22983;SDS011;11658;48.908;9.140;2022-10-16T06:20:43;3.13;;;1.53;;
22983;SDS011;11658;48.908;9.140;2022-10-16T06:23:09;1.80;;;1.40;;
22983;SDS011;11658;48.908;9.140;2022-10-16T06:25:34;2.33;;;1.37;;
22983;SDS011;11658;48.908;9.140;2022-10-16T06:28:00;2.13;;;1.43;;
22983;SDS011;11658;48.908;9.140;2022-10-16T06:30:25;1.60;;;1.50;;
22983;SDS011;11658;48.908;9.140;2022-10-16T06:32:51;3.73;;;1.50;;
22983;SDS011;11658;48.908;9.140;2022-10-16T06:35:17;1.70;;;1.50;;
22983;SDS011;11658;48.908;9.140;2022-10-16T06:37:42;1.57;;;1.27;;
22983;SDS011;11658;48.908;9.140;2022-10-16T06:40:08;1.47;;;1.37;;
22983;SDS011;11658;48.908;9.140;2022-10-16T06:42:33;1.60;;;1.37;;
22983;SDS011;11658;48.908;9.140;2022-10-16T06:44:59;2.47;;;1.60;;
22983;SDS011;11658;48.908;9.140;2022-10-16T06:47:24;2.63;;;1.50;;
22983;SDS011;11658;48.908;9.140;2022-10-16T06:49:50;1.77;;;1.67;;
22983;SDS011;11658;48.908;9.140;2022-10-16T06:52:16;2.33;;;1.50;;
22983;SDS011;11658;48.908;9.140;2022-10-16T06:54:41;1.63;;;1.17;;
22983;SDS011;11658;48.908;9.140;2022-10-16T06:57:07;1.87;;;1.60;;
22983;SDS011;11658;48.908;9.140;2022-10-16T06:59:32;2.37;;;1.60;;
22983;SDS011;11658;48.908;9.140;2022-10-16T07:01:58;2.07;;;1.60;;
22983;SDS011;11658;48.908;9.140;2022-10-16T07:04:23;1.50;;;1.40;;
22983;SDS011;11658;48.908;9.140;2022-10-16T07:06:49;2.50;;;1.53;;
22983;SDS011;11658;48.908;9.140;2022-10-16T07:09:16;2.57;;;1.40;;
22983;SDS011;11658;48.908;9.140;2022-10-16T07:11:42;2.83;;;1.43;;
22983;SDS011;11658;48.908;9.140;2022-10-16T07:14:12;2.83;;;2.10;;
22983;SDS011;11658;48.908;9.140;2022-10-16T07:16:41;2.40;;;2.10;;
22983;SDS011;11658;48.908;9.140;2022-10-16T07:19:07;2.07;;;1.80;;
22983;SDS011;11658;48.908;9.140;2022-10-16T07:21:34;4.40;;;1.70;;
22983;SDS011;11658;48.908;9.140;2022-10-16T07:24:03;1.87;;;1.63;;
22983;SDS011;11658;48.908;9.140;2022-10-16T07:26:31;1.60;;;1.23;;
22983;SDS011;11658;48.908;9.140;2022-10-16T07:28:58;3.07;;;1.53;;
22983;SDS011;11658;48.908;9.140;2022-10-16T07:31:25;2.30;;;1.37;;
22983;SDS011;11658;48.908;9.140;2022-10-16T07:33:51;3.20;;;1.70;;
22983;SDS011;11658;48.908;9.140;2022-10-16T07:36:17;3.80;;;1.87;;
22983;SDS011;11658;48.908;9.140;2022-10-16T07:38:44;2.27;;;1.40;;
22983;SDS011;11658;48.908;9.140;2022-10-16T07:41:11;2.90;;;1.30;;
22983;SDS011;11658;48.908;9.140;2022-10-16T07:43:45;1.90;;;1.70;;
22983;SDS011;11658;48.908;9.140;2022-10-16T07:46:14;3.40;;;2.80;;
22983;SDS011;11658;48.908;9.140;2022-10-16T07:48:41;4.00;;;2.10;;
22983;SDS011;11658;48.908;9.140;2022-10-16T07:51:10;4.67;;;2.30;;
22983;SDS011;11658;48.908;9.140;2022-10-16T07:53:37;3.23;;;1.93;;
22983;SDS011;11658;48.908;9.140;2022-10-16T07:56:04;1.70;;;1.50;;
22983;SDS011;11658;48.908;9.140;2022-10-16T07:58:31;1.63;;;1.53;;
22983;SDS011;11658;48.908;9.140;2022-10-16T08:00:57;1.97;;;1.77;;
22983;SDS011;11658;48.908;9.140;2022-10-16T08:03:23;2.40;;;1.50;;
22983;SDS011;11658;48.908;9.140;2022-10-16T08:05:49;3.23;;;1.57;;
22983;SDS011;11658;48.908;9.140;2022-10-16T08:08:16;3.47;;;1.60;;
22983;SDS011;11658;48.908;9.140;2022-10-16T08:10:42;2.13;;;1.70;;
22983;SDS011;11658;48.908;9.140;2022-10-16T08:13:08;1.60;;;1.40;;
22983;SDS011;11658;48.908;9.140;2022-10-16T08:15:33;1.63;;;1.53;;
22983;SDS011;11658;48.908;9.140;2022-10-16T08:18:03;3.13;;;1.50;;
22983;SDS011;11658;48.908;9.140;2022-10-16T08:20:31;4.10;;;1.40;;
22983;SDS011;11658;48.908;9.140;2022-10-16T08:22:58;5.53;;;2.67;;
22983;SDS011;11658;48.908;9.140;2022-10-16T08:25:24;2.30;;;1.70;;
22983;SDS011;11658;48.908;9.140;2022-10-16T08:27:50;3.43;;;1.53;;
22983;SDS011;11658;48.908;9.140;2022-10-16T08:30:16;3.80;;;1.43;;
22983;SDS011;11658;48.908;9.140;2022-10-16T08:32:43;1.53;;;1.43;;
22983;SDS011;11658;48.908;9.140;2022-10-16T08:35:09;2.10;;;1.20;;
22983;SDS011;11658;48.908;9.140;2022-10-16T08:37:36;4.93;;;1.43;;
22983;SDS011;11658;48.908;9.140;2022-10-16T08:40:02;3.60;;;1.40;;
22983;SDS011;11658;48.908;9.140;2022-10-16T08:45:15;3.03;;;1.47;;
22983;SDS011;11658;48.908;9.140;2022-10-16T08:50:22;3.53;;;1.80;;
22983;SDS011;11658;48.908;9.140;2022-10-16T08:52:50;2.23;;;1.33;;
22983;SDS011;11658;48.908;9.140;2022-10-16T08:55:58;3.17;;;1.50;;
22983;SDS011;11658;48.908;9.140;2022-10-16T08:58:14;2.07;;;1.30;;
22983;SDS011;11658;48.908;9.140;2022-10-16T09:00:54;3.33;;;1.50;;
22983;SDS011;11658;48.908;9.140;2022-10-16T09:08:34;2.97;;;1.33;;
22983;SDS011;11658;48.908;9.140;2022-10-16T09:11:30;3.83;;;1.70;;
22983;SDS011;11658;48.908;9.140;2022-10-16T09:14:20;3.23;;;1.33;;
22983;SDS011;11658;48.908;9.140;2022-10-16T09:17:22;2.87;;;1.40;;
22983;SDS011;11658;48.908;9.140;2022-10-16T09:22:42;3.23;;;1.40;;
22983;SDS011;11658;48.908;9.140;2022-10-16T09:25:12;1.60;;;1.20;;
22983;SDS011;11658;48.908;9.140;2022-10-16T09:27:40;1.30;;;1.20;;
22983;SDS011;11658;48.908;9.140;2022-10-16T09:30:13;3.17;;;1.20;;
22983;SDS011;11658;48.908;9.140;2022-10-16T09:32:40;1.50;;;1.40;;
22983;SDS011;11658;48.908;9.140;2022-10-16T09:35:12;5.70;;;1.30;;
22983;SDS011;11658;48.908;9.140;2022-10-16T09:37:42;2.13;;;1.23;;
22983;SDS011;11658;48.908;9.140;2022-10-16T09:40:13;3.57;;;1.30;;
22983;SDS011;11658;48.908;9.140;2022-10-16T09:42:49;1.80;;;1.37;;
22983;SDS011;11658;48.908;9.140;2022-10-16T09:45:21;2.50;;;1.50;;
22983;SDS011;11658;48.908;9.140;2022-10-16T09:47:48;4.13;;;1.50;;
22983;SDS011;11658;48.908;9.140;2022-10-16T09:50:27;1.80;;;1.20;;
22983;SDS011;11658;48.908;9.140;2022-10-16T09:53:03;1.40;;;1.30;;
22983;SDS011;11658;48.908;9.140;2022-10-16T09:55:35;1.70;;;1.43;;
22983;SDS011;11658;48.908;9.140;2022-10-16T09:58:00;3.70;;;1.50;;
22983;SDS011;11658;48.908;9.140;2022-10-16T10:00:26;2.50;;;1.30;;
22983;SDS011;11658;48.908;9.140;2022-10-16T10:02:52;2.72;;;1.58;;
22983;SDS011;11658;48.908;9.140;2022-10-16T10:05:26;2.20;;;1.40;;
22983;SDS011;11658;48.908;9.140;2022-10-16T10:08:00;2.28;;;1.25;;
22983;SDS011;11658;48.908;9.140;2022-10-16T10:10:36;1.73;;;1.30;;
22983;SDS011;11658;48.908;9.140;2022-10-16T10:13:16;2.13;;;1.10;;
22983;SDS011;11658;48.908;9.140;2022-10-16T10:15:46;4.40;;;1.45;;
22983;SDS011;11658;48.908;9.140;2022-10-16T10:18:19;2.17;;;1.23;;
22983;SDS011;11658;48.908;9.140;2022-10-16T10:20:58;2.92;;;1.13;;
22983;SDS011;11658;48.908;9.140;2022-10-16T10:23:26;1.30;;;1.20;;
22983;SDS011;11658;48.908;9.140;2022-10-16T10:28:59;2.45;;;1.27;;
22983;SDS011;11658;48.908;9.140;2022-10-16T10:40:14;1.85;;;1.30;;
22983;SDS011;11658;48.908;9.140;2022-10-16T10:42:55;2.17;;;1.30;;
22983;SDS011;11658;48.908;9.140;2022-10-16T10:45:44;2.22;;;1.10;;
22983;SDS011;11658;48.908;9.140;2022-10-16T10:50:57;1.65;;;1.40;;
22983;SDS011;11658;48.908;9.140;2022-10-16T10:53:37;1.52;;;1.10;;
22983;SDS011;11658;48.908;9.140;2022-10-16T10:56:24;2.25;;;1.20;;
22983;SDS011;11658;48.908;9.140;2022-10-16T11:02:00;2.30;;;1.00;;
22983;SDS011;11658;48.908;9.140;2022-10-16T11:06:59;4.35;;;1.20;;
22983;SDS011;11658;48.908;9.140;2022-10-16T11:09:34;1.33;;;1.08;;
22983;SDS011;11658;48.908;9.140;2022-10-16T11:12:19;2.63;;;1.27;;
22983;SDS011;11658;48.908;9.140;2022-10-16T11:14:58;3.80;;;1.15;;
22983;SDS011;11658;48.908;9.140;2022-10-16T11:17:30;3.33;;;1.25;;
22983;SDS011;11658;48.908;9.140;2022-10-16T11:20:13;2.40;;;1.27;;
22983;SDS011;11658;48.908;9.140;2022-10-16T11:25:26;3.22;;;1.30;;
22983;SDS011;11658;48.908;9.140;2022-10-16T11:28:06;3.67;;;1.30;;
22983;SDS011;11658;48.908;9.140;2022-10-16T11:30:57;3.50;;;1.33;;
22983;SDS011;11658;48.908;9.140;2022-10-16T11:36:51;1.77;;;1.10;;
22983;SDS011;11658;48.908;9.140;2022-10-16T11:39:19;1.67;;;1.15;;
22983;SDS011;11658;48.908;9.140;2022-10-16T11:47:42;2.65;;;1.02;;
22983;SDS011;11658;48.908;9.140;2022-10-16T11:50:14;3.13;;;1.10;;
22983;SDS011;11658;48.908;9.140;2022-10-16T11:53:01;2.83;;;1.10;;
22983;SDS011;11658;48.908;9.140;2022-10-16T11:55:40;2.45;;;1.10;;
22983;SDS011;11658;48.908;9.140;2022-10-16T12:00:46;1.15;;;0.90;;
22983;SDS011;11658;48.908;9.140;2022-10-16T12:03:34;2.30;;;0.95;;
22983;SDS011;11658;48.908;9.140;2022-10-16T12:08:58;2.15;;;1.00;;
22983;SDS011;11658;48.908;9.140;2022-10-16T12:14:59;2.75;;;1.20;;
22983;SDS011;11658;48.908;9.140;2022-10-16T12:16:58;3.65;;;1.13;;
22983;SDS011;11658;48.908;9.140;2022-10-16T12:19:44;1.65;;;1.10;;
22983;SDS011;11658;48.908;9.140;2022-10-16T12:22:24;2.00;;;1.10;;
22983;SDS011;11658;48.908;9.140;2022-10-16T12:24:53;1.00;;;0.98;;
22983;SDS011;11658;48.908;9.140;2022-10-16T12:27:29;1.60;;;1.20;;
22983;SDS011;11658;48.908;9.140;2022-10-16T12:29:57;2.92;;;0.90;;
22983;SDS011;11658;48.908;9.140;2022-10-16T12:32:34;1.13;;;1.00;;
22983;SDS011;11658;48.908;9.140;2022-10-16T12:35:02;2.35;;;1.20;;
22983;SDS011;11658;48.908;9.140;2022-10-16T12:37:33;2.03;;;0.95;;
22983;SDS011;11658;48.908;9.140;2022-10-16T12:40:11;3.90;;;1.30;;
22983;SDS011;11658;48.908;9.140;2022-10-16T12:42:42;2.05;;;1.48;;
22983;SDS011;11658;48.908;9.140;2022-10-16T12:47:53;2.22;;;1.23;;
22983;SDS011;11658;48.908;9.140;2022-10-16T12:50:36;1.38;;;0.98;;
22983;SDS011;11658;48.908;9.140;2022-10-16T12:53:16;2.90;;;1.08;;
22983;SDS011;11658;48.908;9.140;2022-10-16T12:56:32;2.38;;;1.30;;
22983;SDS011;11658;48.908;9.140;2022-10-16T13:01:29;2.60;;;1.10;;
22983;SDS011;11658;48.908;9.140;2022-10-16T13:04:11;1.17;;;1.08;;
22983;SDS011;11658;48.908;9.140;2022-10-16T13:06:50;2.28;;;1.10;;
22983;SDS011;11658;48.908;9.140;2022-10-16T13:15:19;1.58;;;1.20;;
22983;SDS011;11658;48.908;9.140;2022-10-16T13:20:38;3.10;;;1.10;;
22983;SDS011;11658;48.908;9.140;2022-10-16T13:26:28;1.23;;;1.05;;
22983;SDS011;11658;48.908;9.140;2022-10-16T13:29:00;2.20;;;1.20;;
22983;SDS011;11658;48.908;9.140;2022-10-16T13:31:26;2.78;;;1.33;;
22983;SDS011;11658;48.908;9.140;2022-10-16T13:33:53;1.42;;;0.90;;
22983;SDS011;11658;48.908;9.140;2022-10-16T13:36:25;3.05;;;1.27;;
22983;SDS011;11658;48.908;9.140;2022-10-16T13:41:38;4.47;;;1.38;;
22983;SDS011;11658;48.908;9.140;2022-10-16T13:44:04;3.72;;;1.25;;
22983;SDS011;11658;48.908;9.140;2022-10-16T13:46:34;1.10;;;1.00;;
22983;SDS011;11658;48.908;9.140;2022-10-16T13:49:10;2.40;;;1.38;;
22983;SDS011;11658;48.908;9.140;2022-10-16T13:51:38;2.67;;;1.20;;
22983;SDS011;11658;48.908;9.140;2022-10-16T13:54:03;1.20;;;1.10;;
22983;SDS011;11658;48.908;9.140;2022-10-16T13:56:30;1.77;;;1.13;;
22983;SDS011;11658;48.908;9.140;2022-10-16T13:58:58;1.20;;;1.00;;
22983;SDS011;11658;48.908;9.140;2022-10-16T14:01:24;1.50;;;1.30;;
22983;SDS011;11658;48.908;9.140;2022-10-16T14:03:53;3.67;;;1.50;;
22983;SDS011;11658;48.908;9.140;2022-10-16T14:06:27;1.35;;;1.15;;
22983;SDS011;11658;48.908;9.140;2022-10-16T14:11:46;3.00;;;1.10;;
22983;SDS011;11658;48.908;9.140;2022-10-16T14:14:16;3.08;;;1.17;;
22983;SDS011;11658;48.908;9.140;2022-10-16T14:16:42;1.60;;;1.20;;
22983;SDS011;11658;48.908;9.140;2022-10-16T14:19:28;2.60;;;1.05;;
22983;SDS011;11658;48.908;9.140;2022-10-16T14:21:55;1.88;;;1.30;;
22983;SDS011;11658;48.908;9.140;2022-10-16T14:24:25;1.42;;;1.13;;
22983;SDS011;11658;48.908;9.140;2022-10-16T14:26:51;1.85;;;1.13;;
22983;SDS011;11658;48.908;9.140;2022-10-16T14:29:20;2.83;;;1.30;;
22983;SDS011;11658;48.908;9.140;2022-10-16T14:36:59;1.55;;;1.20;;
22983;SDS011;11658;48.908;9.140;2022-10-16T14:39:29;1.10;;;0.98;;
22983;SDS011;11658;48.908;9.140;2022-10-16T14:41:55;2.78;;;1.20;;
22983;SDS011;11658;48.908;9.140;2022-10-16T14:44:28;2.50;;;1.25;;
22983;SDS011;11658;48.908;9.140;2022-10-16T14:46:57;2.97;;;1.17;;
22983;SDS011;11658;48.908;9.140;2022-10-16T14:49:24;1.60;;;1.23;;
22983;SDS011;11658;48.908;9.140;2022-10-16T14:51:50;1.92;;;1.40;;
22983;SDS011;11658;48.908;9.140;2022-10-16T14:54:17;2.38;;;1.20;;
22983;SDS011;11658;48.908;9.140;2022-10-16T15:01:53;1.85;;;1.35;;
22983;SDS011;11658;48.908;9.140;2022-10-16T15:04:19;5.03;;;1.50;;
22983;SDS011;11658;48.908;9.140;2022-10-16T15:06:45;3.00;;;1.50;;
22983;SDS011;11658;48.908;9.140;2022-10-16T15:09:10;4.05;;;1.33;;
22983;SDS011;11658;48.908;9.140;2022-10-16T15:11:36;3.05;;;1.30;;
22983;SDS011;11658;48.908;9.140;2022-10-16T15:14:02;2.35;;;1.40;;
22983;SDS011;11658;48.908;9.140;2022-10-16T15:16:28;5.63;;;1.70;;
22983;SDS011;11658;48.908;9.140;2022-10-16T15:18:55;2.10;;;1.50;;
22983;SDS011;11658;48.908;9.140;2022-10-16T15:21:22;3.75;;;1.42;;
22983;SDS011;11658;48.908;9.140;2022-10-16T15:23:54;1.85;;;1.23;;
22983;SDS011;11658;48.908;9.140;2022-10-16T15:26:21;4.05;;;1.20;;
22983;SDS011;11658;48.908;9.140;2022-10-16T15:28:48;1.27;;;1.17;;
22983;SDS011;11658;48.908;9.140;2022-10-16T15:31:14;3.20;;;1.50;;
22983;SDS011;11658;48.908;9.140;2022-10-16T15:33:40;3.75;;;1.50;;
22983;SDS011;11658;48.908;9.140;2022-10-16T15:36:05;3.40;;;1.45;;
22983;SDS011;11658;48.908;9.140;2022-10-16T15:38:32;3.92;;;1.52;;
22983;SDS011;11658;48.908;9.140;2022-10-16T15:40:57;1.70;;;1.40;;
22983;SDS011;11658;48.908;9.140;2022-10-16T15:43:23;2.78;;;1.45;;
22983;SDS011;11658;48.908;9.140;2022-10-16T15:45:58;3.30;;;1.50;;
22983;SDS011;11658;48.908;9.140;2022-10-16T15:48:29;1.65;;;1.40;;
22983;SDS011;11658;48.908;9.140;2022-10-16T15:50:55;3.78;;;1.50;;
22983;SDS011;11658;48.908;9.140;2022-10-16T15:53:21;3.20;;;1.40;;
22983;SDS011;11658;48.908;9.140;2022-10-16T15:55:47;3.83;;;1.50;;
22983;SDS011;11658;48.908;9.140;2022-10-16T15:58:12;3.67;;;1.50;;
22983;SDS011;11658;48.908;9.140;2022-10-16T16:00:38;3.63;;;1.70;;
22983;SDS011;11658;48.908;9.140;2022-10-16T16:03:04;2.50;;;1.50;;
22983;SDS011;11658;48.908;9.140;2022-10-16T16:05:29;2.75;;;1.48;;
22983;SDS011;11658;48.908;9.140;2022-10-16T16:07:55;1.50;;;1.40;;
22983;SDS011;11658;48.908;9.140;2022-10-16T16:10:22;5.90;;;1.60;;
22983;SDS011;11658;48.908;9.140;2022-10-16T16:12:47;1.73;;;1.40;;
22983;SDS011;11658;48.908;9.140;2022-10-16T16:15:18;5.17;;;1.90;;
22983;SDS011;11658;48.908;9.140;2022-10-16T16:17:44;2.03;;;1.53;;
22983;SDS011;11658;48.908;9.140;2022-10-16T16:20:10;2.93;;;1.73;;
22983;SDS011;11658;48.908;9.140;2022-10-16T16:22:36;3.07;;;1.63;;
22983;SDS011;11658;48.908;9.140;2022-10-16T16:25:02;2.57;;;1.60;;
22983;SDS011;11658;48.908;9.140;2022-10-16T16:27:28;2.30;;;1.47;;
22983;SDS011;11658;48.908;9.140;2022-10-16T16:29:55;4.73;;;1.80;;
22983;SDS011;11658;48.908;9.140;2022-10-16T16:32:20;3.57;;;1.80;;
22983;SDS011;11658;48.908;9.140;2022-10-16T16:34:46;3.97;;;1.73;;
22983;SDS011;11658;48.908;9.140;2022-10-16T16:37:12;2.40;;;1.70;;
22983;SDS011;11658;48.908;9.140;2022-10-16T16:39:38;2.33;;;1.70;;
22983;SDS011;11658;48.908;9.140;2022-10-16T16:42:03;2.10;;;1.90;;
22983;SDS011;11658;48.908;9.140;2022-10-16T16:44:31;4.17;;;1.90;;
22983;SDS011;11658;48.908;9.140;2022-10-16T16:46:56;3.90;;;2.10;;
22983;SDS011;11658;48.908;9.140;2022-10-16T16:49:22;6.53;;;1.93;;
22983;SDS011;11658;48.908;9.140;2022-10-16T16:51:48;2.83;;;1.80;;
22983;SDS011;11658;48.908;9.140;2022-10-16T16:54:13;4.13;;;1.87;;
22983;SDS011;11658;48.908;9.140;2022-10-16T16:56:39;4.20;;;2.10;;
22983;SDS011;11658;48.908;9.140;2022-10-16T16:59:14;5.57;;;2.13;;
22983;SDS011;11658;48.908;9.140;2022-10-16T17:01:42;5.67;;;2.13;;
22983;SDS011;11658;48.908;9.140;2022-10-16T17:04:08;2.80;;;2.20;;
22983;SDS011;11658;48.908;9.140;2022-10-16T17:06:35;2.10;;;1.80;;
22983;SDS011;11658;48.908;9.140;2022-10-16T17:09:02;3.57;;;1.97;;
22983;SDS011;11658;48.908;9.140;2022-10-16T17:11:29;3.67;;;2.23;;
22983;SDS011;11658;48.908;9.140;2022-10-16T17:13:56;3.07;;;2.20;;
22983;SDS011;11658;48.908;9.140;2022-10-16T17:16:26;4.23;;;2.30;;
22983;SDS011;11658;48.908;9.140;2022-10-16T17:18:54;7.50;;;2.10;;
22983;SDS011;11658;48.908;9.140;2022-10-16T17:21:20;4.53;;;1.90;;
22983;SDS011;11658;48.908;9.140;2022-10-16T17:23:45;3.73;;;2.50;;
22983;SDS011;11658;48.908;9.140;2022-10-16T17:26:12;4.27;;;2.63;;
22983;SDS011;11658;48.908;9.140;2022-10-16T17:28:39;6.73;;;4.77;;
22983;SDS011;11658;48.908;9.140;2022-10-16T17:31:07;5.90;;;3.60;;
22983;SDS011;11658;48.908;9.140;2022-10-16T17:33:36;3.93;;;2.70;;
22983;SDS011;11658;48.908;9.140;2022-10-16T17:36:01;5.90;;;3.13;;
22983;SDS011;11658;48.908;9.140;2022-10-16T17:38:27;4.60;;;2.80;;
22983;SDS011;11658;48.908;9.140;2022-10-16T17:40:53;5.93;;;3.00;;
22983;SDS011;11658;48.908;9.140;2022-10-16T17:43:18;5.70;;;2.93;;
22983;SDS011;11658;48.908;9.140;2022-10-16T17:45:44;5.40;;;2.83;;
22983;SDS011;11658;48.908;9.140;2022-10-16T17:48:09;3.57;;;2.80;;
22983;SDS011;11658;48.908;9.140;2022-10-16T17:50:38;4.83;;;2.83;;
22983;SDS011;11658;48.908;9.140;2022-10-16T17:53:05;7.03;;;2.20;;
22983;SDS011;11658;48.908;9.140;2022-10-16T17:55:31;4.90;;;2.50;;
22983;SDS011;11658;48.908;9.140;2022-10-16T17:58:02;9.03;;;2.77;;
22983;SDS011;11658;48.908;9.140;2022-10-16T18:00:27;3.17;;;2.20;;
22983;SDS011;11658;48.908;9.140;2022-10-16T18:02:53;4.70;;;2.60;;
22983;SDS011;11658;48.908;9.140;2022-10-16T18:05:19;4.77;;;2.40;;
22983;SDS011;11658;48.908;9.140;2022-10-16T18:07:44;4.30;;;2.47;;
22983;SDS011;11658;48.908;9.140;2022-10-16T18:10:10;6.07;;;2.10;;
22983;SDS011;11658;48.908;9.140;2022-10-16T18:12:36;3.53;;;2.30;;
22983;SDS011;11658;48.908;9.140;2022-10-16T18:15:01;5.23;;;2.23;;
22983;SDS011;11658;48.908;9.140;2022-10-16T18:17:27;3.33;;;2.10;;
22983;SDS011;11658;48.908;9.140;2022-10-16T18:19:55;3.37;;;2.10;;
22983;SDS011;11658;48.908;9.140;2022-10-16T18:22:20;6.00;;;2.50;;
22983;SDS011;11658;48.908;9.140;2022-10-16T18:24:47;5.63;;;2.00;;
22983;SDS011;11658;48.908;9.140;2022-10-16T18:27:13;6.07;;;2.03;;
22983;SDS011;11658;48.908;9.140;2022-10-16T18:29:38;4.97;;;1.93;;
22983;SDS011;11658;48.908;9.140;2022-10-16T18:32:04;1.80;;;1.70;;
22983;SDS011;11658;48.908;9.140;2022-10-16T18:34:29;5.63;;;2.00;;
22983;SDS011;11658;48.908;9.140;2022-10-16T18:36:55;5.23;;;2.00;;
22983;SDS011;11658;48.908;9.140;2022-10-16T18:39:21;4.70;;;1.80;;
22983;SDS011;11658;48.908;9.140;2022-10-16T18:41:48;2.70;;;2.27;;
22983;SDS011;11658;48.908;9.140;2022-10-16T18:44:15;2.43;;;2.20;;
22983;SDS011;11658;48.908;9.140;2022-10-16T18:46:40;4.00;;;2.40;;
22983;SDS011;11658;48.908;9.140;2022-10-16T18:49:06;2.20;;;1.73;;
22983;SDS011;11658;48.908;9.140;2022-10-16T18:51:33;3.23;;;2.33;;
22983;SDS011;11658;48.908;9.140;2022-10-16T18:54:02;4.80;;;2.13;;
22983;SDS011;11658;48.908;9.140;2022-10-16T18:56:31;5.33;;;2.30;;
22983;SDS011;11658;48.908;9.140;2022-10-16T18:59:00;3.93;;;2.80;;
22983;SDS011;11658;48.908;9.140;2022-10-16T19:01:28;6.47;;;2.50;;
22983;SDS011;11658;48.908;9.140;2022-10-16T19:03:56;3.93;;;2.47;;
22983;SDS011;11658;48.908;9.140;2022-10-16T19:06:27;5.20;;;2.37;;
22983;SDS011;11658;48.908;9.140;2022-10-16T19:08:53;2.97;;;2.20;;
22983;SDS011;11658;48.908;9.140;2022-10-16T19:11:21;5.43;;;2.53;;
22983;SDS011;11658;48.908;9.140;2022-10-16T19:13:48;4.40;;;2.33;;
22983;SDS011;11658;48.908;9.140;2022-10-16T19:16:15;3.53;;;2.40;;
22983;SDS011;11658;48.908;9.140;2022-10-16T19:18:46;3.90;;;2.40;;
22983;SDS011;11658;48.908;9.140;2022-10-16T19:21:13;3.87;;;2.80;;
22983;SDS011;11658;48.908;9.140;2022-10-16T19:23:39;7.50;;;2.80;;
22983;SDS011;11658;48.908;9.140;2022-10-16T19:26:06;3.37;;;2.50;;
22983;SDS011;11658;48.908;9.140;2022-10-16T19:28:34;4.53;;;2.50;;
22983;SDS011;11658;48.908;9.140;2022-10-16T19:31:05;4.40;;;2.50;;
22983;SDS011;11658;48.908;9.140;2022-10-16T19:33:34;2.80;;;2.30;;
22983;SDS011;11658;48.908;9.140;2022-10-16T19:36:09;4.83;;;2.20;;
22983;SDS011;11658;48.908;9.140;2022-10-16T19:38:35;3.63;;;2.43;;
22983;SDS011;11658;48.908;9.140;2022-10-16T19:41:08;3.17;;;2.40;;
22983;SDS011;11658;48.908;9.140;2022-10-16T19:43:38;5.23;;;2.53;;
22983;SDS011;11658;48.908;9.140;2022-10-16T19:46:08;6.67;;;2.40;;
22983;SDS011;11658;48.908;9.140;2022-10-16T19:48:36;4.77;;;2.60;;
22983;SDS011;11658;48.908;9.140;2022-10-16T19:51:02;3.57;;;2.40;;
22983;SDS011;11658;48.908;9.140;2022-10-16T19:53:28;3.43;;;2.30;;
22983;SDS011;11658;48.908;9.140;2022-10-16T19:55:55;2.43;;;2.20;;
22983;SDS011;11658;48.908;9.140;2022-10-16T19:58:21;4.67;;;3.30;;
22983;SDS011;11658;48.908;9.140;2022-10-16T20:00:47;5.10;;;2.53;;
22983;SDS011;11658;48.908;9.140;2022-10-16T20:03:14;5.03;;;2.50;;
22983;SDS011;11658;48.908;9.140;2022-10-16T20:05:48;4.33;;;2.30;;
22983;SDS011;11658;48.908;9.140;2022-10-16T20:08:15;8.47;;;4.50;;
22983;SDS011;11658;48.908;9.140;2022-10-16T20:10:46;3.63;;;2.87;;
22983;SDS011;11658;48.908;9.140;2022-10-16T20:13:16;5.00;;;2.77;;
22983;SDS011;11658;48.908;9.140;2022-10-16T20:15:42;2.77;;;2.20;;
22983;SDS011;11658;48.908;9.140;2022-10-16T20:18:08;2.30;;;2.10;;
22983;SDS011;11658;48.908;9.140;2022-10-16T20:20:37;3.20;;;2.50;;
22983;SDS011;11658;48.908;9.140;2022-10-16T20:23:04;4.40;;;2.40;;
22983;SDS011;11658;48.908;9.140;2022-10-16T20:25:40;5.83;;;2.40;;
22983;SDS011;11658;48.908;9.140;2022-10-16T20:28:08;2.83;;;2.27;;
22983;SDS011;11658;48.908;9.140;2022-10-16T20:30:37;7.10;;;2.30;;
22983;SDS011;11658;48.908;9.140;2022-10-16T20:33:04;4.60;;;2.30;;
22983;SDS011;11658;48.908;9.140;2022-10-16T20:35:36;3.27;;;2.20;;
22983;SDS011;11658;48.908;9.140;2022-10-16T20:38:03;3.20;;;2.30;;
22983;SDS011;11658;48.908;9.140;2022-10-16T20:40:28;5.30;;;3.70;;
22983;SDS011;11658;48.908;9.140;2022-10-16T20:42:54;6.43;;;3.40;;
22983;SDS011;11658;48.908;9.140;2022-10-16T20:45:20;5.83;;;3.10;;
22983;SDS011;11658;48.908;9.140;2022-10-16T20:47:46;5.00;;;2.40;;
22983;SDS011;11658;48.908;9.140;2022-10-16T20:50:11;4.93;;;2.40;;
22983;SDS011;11658;48.908;9.140;2022-10-16T20:52:38;5.27;;;2.30;;
22983;SDS011;11658;48.908;9.140;2022-10-16T20:55:04;4.43;;;2.60;;
22983;SDS011;11658;48.908;9.140;2022-10-16T20:57:30;3.27;;;2.50;;
22983;SDS011;11658;48.908;9.140;2022-10-16T20:59:56;3.93;;;2.50;;
